Latest Weather Observations for Point Wilson

IDV60801

Issued at 7:35 pm EST Thursday 18 September 2014 (issued every 30 minutes, with the page automatically refreshed every 10 minutes)

About weather observations | Map of weather stations | Latest weather observations for VIC | Other Formats
Station Details ID: 087166 Name: POINT WILSON Lat: -38.10 Lon: 144.54 Height: 18.0 m
Data from the previous 72 hours. | See also: Recent months at Point Wilson
Date/Time
EST
Temp
°C
App
Temp
°C
Dew
Point
Rel
Hum
%
Delta-T
°C
Wind Press
QNH
hPa
Press
MSL
hPa
Rain
since 9 am
mm
Dir
 
Spd
km/h
Gust
km/h
Spd
kts
Gust
kts
18/07:30pm - - - - - SW 28 33 15 18 - - -
18/07:00pm - - - - - SW 28 32 15 17 - - -
18/06:30pm - - - - - SSW 28 32 15 17 - - -
18/06:00pm - - - - - SSW 32 35 17 19 - - -
18/05:30pm - - - - - SSW 35 43 19 23 - - -
18/05:00pm - - - - - SSW 37 46 20 25 - - -
18/04:30pm - - - - - SSW 33 39 18 21 - - -
18/04:00pm - - - - - SSW 35 41 19 22 - - -
18/03:30pm - - - - - SSW 33 37 18 20 - - -
18/03:00pm - - - - - SSW 33 39 18 21 - - -
18/02:30pm - - - - - SSW 33 39 18 21 - - -
18/02:00pm - - - - - SSW 33 39 18 21 - - -
18/01:30pm - - - - - SSW 33 37 18 20 - - -
18/01:00pm - - - - - SSW 32 39 17 21 - - -
18/12:30pm - - - - - SSW 28 33 15 18 - - -
18/12:06pm - - - - - SSW 37 43 20 23 - - -
18/12:00pm - - - - - SSW 17 20 9 11 - - -
18/11:30am - - - - - SSW 30 37 16 20 - - -
18/11:00am - - - - - SW 22 26 12 14 - - -
18/10:30am - - - - - SSW 30 41 16 22 - - -
18/10:00am - - - - - WSW 20 30 11 16 - - -
18/09:30am - - - - - WSW 22 26 12 14 - - -
18/09:00am - - - - - W 30 35 16 19 - - -
18/08:30am - - - - - WSW 26 32 14 17 - - -
18/08:00am - - - - - W 30 35 16 19 - - -
18/07:30am - - - - - W 32 37 17 20 - - -
18/07:00am - - - - - W 32 35 17 19 - - -
18/06:30am - - - - - W 33 37 18 20 - - -
18/06:00am - - - - - W 32 37 17 20 - - -
18/05:30am - - - - - W 32 35 17 19 - - -
18/05:00am - - - - - WNW 24 32 13 17 - - -
18/04:30am - - - - - WNW 28 39 15 21 - - -
18/04:00am - - - - - W 32 35 17 19 - - -
18/03:30am - - - - - W 33 37 18 20 - - -
18/03:00am - - - - - W 33 41 18 22 - - -
18/02:30am - - - - - W 33 39 18 21 - - -
18/02:00am - - - - - W 37 43 20 23 - - -
18/01:30am - - - - - W 37 44 20 24 - - -
18/01:00am - - - - - W 37 48 20 26 - - -
18/12:30am - - - - - W 37 44 20 24 - - -
18/12:00am - - - - - W 37 44 20 24 - - -
 
Date/Time
EST
Temp
°C
App
Temp
°C
Dew
Point
Rel
Hum
%
Delta-T
°C
Wind Press
QNH
hPa
Press
MSL
hPa
Rain
since 9 am
mm
Dir
 
Spd
km/h
Gust
km/h
Spd
kts
Gust
kts
17/11:30pm - - - - - W 39 48 21 26 - - -
17/11:00pm - - - - - W 37 43 20 23 - - -
17/10:30pm - - - - - W 35 43 19 23 - - -
17/10:00pm - - - - - W 35 44 19 24 - - -
17/09:30pm - - - - - W 33 41 18 22 - - -
17/09:00pm - - - - - W 33 41 18 22 - - -
17/08:30pm - - - - - W 28 33 15 18 - - -
17/08:00pm - - - - - W 33 39 18 21 - - -
17/07:30pm - - - - - WSW 33 41 18 22 - - -
17/07:00pm - - - - - WSW 35 41 19 22 - - -
17/06:30pm - - - - - WSW 35 46 19 25 - - -
17/06:00pm - - - - - WSW 33 41 18 22 - - -
17/05:30pm - - - - - W 32 43 17 23 - - -
17/05:00pm - - - - - WSW 30 39 16 21 - - -
17/04:30pm - - - - - WSW 30 37 16 20 - - -
17/04:00pm - - - - - SW 39 52 21 28 - - -
17/03:30pm - - - - - WSW 39 50 21 27 - - -
17/03:00pm - - - - - WSW 37 46 20 25 - - -
17/02:30pm - - - - - WSW 44 59 24 32 - - -
17/02:08pm - - - - - WSW 44 63 24 34 - - -
17/02:00pm - - - - - W 52 63 28 34 - - -
17/01:51pm - - - - - WSW 43 61 23 33 - - -
17/01:30pm - - - - - W 43 54 23 29 - - -
17/01:00pm - - - - - WSW 48 61 26 33 - - -
17/12:30pm - - - - - WSW 41 52 22 28 - - -
17/12:00pm - - - - - WSW 39 50 21 27 - - -
17/11:52am - - - - - WSW 37 56 20 30 - - -
17/11:30am - - - - - WSW 35 48 19 26 - - -
17/11:05am - - - - - WSW 39 57 21 31 - - -
17/11:00am - - - - - WSW 37 43 20 23 - - -
17/10:30am - - - - - W 43 52 23 28 - - -
17/10:19am - - - - - W 41 65 22 35 - - -
17/10:00am - - - - - W 33 43 18 23 - - -
17/09:30am - - - - - W 39 46 21 25 - - -
17/09:00am - - - - - W 41 48 22 26 - - -
17/08:30am - - - - - W 39 44 21 24 - - -
17/08:00am - - - - - WNW 37 43 20 23 - - -
17/07:30am - - - - - WNW 33 44 18 24 - - -
17/07:00am - - - - - W 32 39 17 21 - - -
17/06:30am - - - - - W 35 44 19 24 - - -
17/06:00am - - - - - W 41 48 22 26 - - -
17/05:30am - - - - - W 39 56 21 30 - - -
17/05:00am - - - - - W 30 39 16 21 - - -
17/04:30am - - - - - W 24 35 13 19 - - -
17/04:00am - - - - - NW 22 30 12 16 - - -
17/03:30am - - - - - NW 19 20 10 11 - - -
17/03:00am - - - - - NW 20 24 11 13 - - -
17/02:30am - - - - - WNW 28 33 15 18 - - -
17/02:00am - - - - - WNW 24 28 13 15 - - -
17/01:30am - - - - - NW 28 32 15 17 - - -
17/01:00am - - - - - NW 28 32 15 17 - - -
17/12:30am - - - - - WNW 26 30 14 16 - - -
17/12:00am - - - - - WNW 24 32 13 17 - - -
 
Date/Time
EST
Temp
°C
App
Temp
°C
Dew
Point
Rel
Hum
%
Delta-T
°C
Wind Press
QNH
hPa
Press
MSL
hPa
Rain
since 9 am
mm
Dir
 
Spd
km/h
Gust
km/h
Spd
kts
Gust
kts
16/11:30pm - - - - - NW 13 15 7 8 - - -
16/11:00pm - - - - - NW 17 19 9 10 - - -
16/10:30pm - - - - - WNW 17 20 9 11 - - -
16/10:00pm - - - - - NW 17 22 9 12 - - -
16/09:30pm - - - - - WNW 19 24 10 13 - - -
16/09:00pm - - - - - WSW 15 17 8 9 - - -
16/08:30pm - - - - - W 19 24 10 13 - - -
16/08:00pm - - - - - WSW 20 22 11 12 - - -
16/07:30pm - - - - - WSW 19 22 10 12 - - -
16/07:00pm - - - - - SW 19 20 10 11 - - -
16/06:30pm - - - - - SW 20 24 11 13 - - -
16/06:00pm - - - - - SSW 30 33 16 18 - - -
16/05:30pm - - - - - SSW 30 35 16 19 - - -
16/05:00pm - - - - - SW 30 35 16 19 - - -
16/04:30pm - - - - - SSW 24 28 13 15 - - -
16/04:00pm - - - - - SW 39 50 21 27 - - -
16/03:30pm - - - - - SSW 32 39 17 21 - - -
16/03:00pm - - - - - SW 35 39 19 21 - - -
16/02:30pm - - - - - SW 33 39 18 21 - - -
16/02:00pm - - - - - SSW 39 46 21 25 - - -
16/01:30pm - - - - - SSW 44 52 24 28 - - -
16/01:00pm - - - - - SSW 41 46 22 25 - - -
16/12:30pm - - - - - SW 41 46 22 25 - - -
16/12:00pm - - - - - SW 37 43 20 23 - - -
16/11:30am - - - - - SW 32 39 17 21 - - -
16/11:00am - - - - - SW 33 37 18 20 - - -
16/10:30am - - - - - SW 24 30 13 16 - - -
16/10:00am - - - - - W 22 28 12 15 - - -
16/09:30am - - - - - W 24 28 13 15 - - -
16/09:00am - - - - - W 28 32 15 17 - - -
16/08:30am - - - - - W 26 32 14 17 - - -
16/08:00am - - - - - W 26 28 14 15 - - -
16/07:30am - - - - - WSW 20 26 11 14 - - -
16/07:00am - - - - - WSW 28 32 15 17 - - -
16/06:30am - - - - - SW 28 32 15 17 - - -
16/06:00am - - - - - SW 26 30 14 16 - - -
16/05:30am - - - - - SW 24 26 13 14 - - -
16/05:00am - - - - - SW 13 17 7 9 - - -
16/04:30am - - - - - SSE 13 17 7 9 - - -
16/04:00am - - - - - SSE 11 17 6 9 - - -
16/03:30am - - - - - S 9 13 5 7 - - -
16/03:00am - - - - - SSE 11 13 6 7 - - -
16/02:30am - - - - - S 9 11 5 6 - - -
16/02:00am - - - - - ESE 11 13 6 7 - - -
16/01:30am - - - - - SE 11 13 6 7 - - -
16/01:00am - - - - - SSE 11 13 6 7 - - -
16/12:30am - - - - - SE 11 15 6 8 - - -
16/12:00am - - - - - SE 11 15 6 8 - - -
 
Date/Time
EST
Temp
°C
App
Temp
°C
Dew
Point
Rel
Hum
%
Delta-T
°C
Wind Press
QNH
hPa
Press
MSL
hPa
Rain
since 9 am
mm
Dir
 
Spd
km/h
Gust
km/h
Spd
kts
Gust
kts
15/11:30pm - - - - - ESE 11 17 6 9 - - -
15/11:00pm - - - - - SE 15 19 8 10 - - -
15/10:30pm - - - - - ESE 24 30 13 16 - - -
15/10:00pm - - - - - SSW 17 20 9 11 - - -
15/09:30pm - - - - - ESE 32 35 17 19 - - -
15/09:00pm - - - - - ESE 32 39 17 21 - - -
15/08:30pm - - - - - ESE 30 39 16 21 - - -
15/08:00pm - - - - - ESE 28 35 15 19 - - -

Other Formats:

Comma delimited format used in spreadsheet applications
http://www.bom.gov.au/fwo/IDV60801/IDV60801.94847.axf

JavaScript Object Notation format (JSON) in row-major order
http://www.bom.gov.au/fwo/IDV60801/IDV60801.94847.json